Time;durP1;ratioP1;P1;durP2;ratioP2;P2;SDS_P1;SDS_P2;PMS_P1;PMS_P2;Temp;Humidity;BMP_temperature;BMP_pressure;BME280_temperature;BME280_humidity;BME280_pressure;Samples;Min_cycle;Max_cycle;Signal;HPM_P1;HPM_P2
2022/05/29 00:01:12;;;;;;;0.00;0.00;;;18.00;67.10;;;;;;4226892;27;20046;-65
2022/05/29 00:03:34;;;;;;;0.00;0.00;;;18.00;67.10;;;;;;4227213;27;20101;-64
2022/05/29 00:05:57;;;;;;;0.00;0.00;;;18.00;67.00;;;;;;4227232;28;20051;-64
2022/05/29 00:08:26;;;;;;;0.00;0.00;;;18.00;66.90;;;;;;4226991;28;20616;-64
2022/05/29 00:10:48;;;;;;;0.00;0.00;;;18.00;66.70;;;;;;4212890;28;20498;-65
2022/05/29 00:13:12;;;;;;;0.00;0.00;;;18.00;66.80;;;;;;4209968;28;20499;-64
2022/05/29 00:15:34;;;;;;;2.55;0.73;;;18.00;66.70;;;;;;4210189;28;20050;-64
2022/05/29 00:17:56;;;;;;;0.00;0.00;;;18.00;66.50;;;;;;4209901;28;20396;-63
2022/05/29 00:20:19;;;;;;;0.28;0.28;;;18.00;66.10;;;;;;4218818;27;20051;-64
2022/05/29 00:22:41;;;;;;;0.00;0.00;;;18.00;65.90;;;;;;4226862;28;20067;-64
2022/05/29 00:25:09;;;;;;;0.10;0.10;;;17.90;65.20;;;;;;4226568;27;20044;-64
2022/05/29 00:27:31;;;;;;;0.00;0.00;;;17.90;65.60;;;;;;4226651;27;20055;-64
2022/05/29 00:29:54;;;;;;;0.00;0.00;;;17.90;65.80;;;;;;4220874;27;20048;-64
2022/05/29 00:32:16;;;;;;;0.00;0.00;;;17.90;65.90;;;;;;4209536;28;20131;-64
2022/05/29 00:34:39;;;;;;;0.00;0.00;;;17.90;66.10;;;;;;4209668;28;20048;-64
2022/05/29 00:37:03;;;;;;;0.00;0.00;;;17.90;66.30;;;;;;4221015;27;20071;-64
2022/05/29 00:39:26;;;;;;;0.15;0.15;;;17.90;66.50;;;;;;4226008;27;20058;-64
2022/05/29 00:41:48;;;;;;;0.00;0.00;;;17.90;66.70;;;;;;4226425;28;20459;-64
2022/05/29 00:44:17;;;;;;;0.05;0.05;;;17.90;66.80;;;;;;4214233;27;20060;-64
2022/05/29 00:46:46;;;;;;;0.00;0.00;;;17.90;66.80;;;;;;4207944;28;20048;-64
2022/05/29 00:49:09;;;;;;;0.38;0.38;;;17.90;66.90;;;;;;4209180;28;20054;-65
2022/05/29 00:51:31;;;;;;;0.20;0.20;;;17.90;67.00;;;;;;4192533;28;20062;-64
2022/05/29 00:53:53;;;;;;;0.00;0.00;;;17.90;67.10;;;;;;4192890;28;20141;-65
2022/05/29 00:56:16;;;;;;;0.00;0.00;;;17.90;67.10;;;;;;4195792;28;20055;-65
2022/05/29 00:58:39;;;;;;;0.00;0.00;;;17.90;67.10;;;;;;4209287;28;20134;-65
2022/05/29 01:01:03;;;;;;;0.00;0.00;;;17.90;67.20;;;;;;4209117;28;20506;-64
2022/05/29 01:03:27;;;;;;;1.20;1.10;;;17.90;67.30;;;;;;4209288;28;20532;-64
2022/05/29 01:05:50;;;;;;;0.00;0.00;;;17.90;67.30;;;;;;4206198;28;20052;-64
2022/05/29 01:08:15;;;;;;;0.10;0.10;;;17.90;67.30;;;;;;4193739;28;20044;-63
2022/05/29 01:10:52;;;;;;;0.00;0.00;;;17.90;67.30;;;;;;4192541;28;20125;-64
2022/05/29 01:13:22;;;;;;;0.00;0.00;;;17.90;67.40;;;;;;4192362;28;20517;-64
2022/05/29 01:15:54;;;;;;;0.00;0.00;;;17.90;67.50;;;;;;4191396;28;20478;-64
2022/05/29 01:18:23;;;;;;;0.00;0.00;;;17.90;67.50;;;;;;4209038;28;20063;-64
2022/05/29 01:21:04;;;;;;;0.00;0.00;;;17.90;67.60;;;;;;4208712;28;20055;-64
2022/05/29 01:24:02;;;;;;;0.00;0.00;;;17.90;67.50;;;;;;4208970;28;20080;-64
2022/05/29 01:26:50;;;;;;;0.00;0.00;;;17.90;67.60;;;;;;4213309;28;20051;-64
2022/05/29 01:29:18;;;;;;;0.00;0.00;;;17.90;67.50;;;;;;4208891;28;20139;-64
2022/05/29 01:31:46;;;;;;;0.35;0.35;;;17.90;67.60;;;;;;4208607;28;20069;-66
2022/05/29 01:34:29;;;;;;;0.00;0.00;;;17.90;67.70;;;;;;4223145;28;20059;-66
2022/05/29 01:37:04;;;;;;;1.05;1.05;;;17.90;67.50;;;;;;4215507;28;20051;-66
2022/05/29 01:39:31;;;;;;;0.00;0.00;;;17.90;67.60;;;;;;4208262;28;20055;-66
2022/05/29 01:41:58;;;;;;;0.88;0.88;;;17.90;68.40;;;;;;4208846;28;20035;-65
2022/05/29 01:44:27;;;;;;;0.17;0.17;;;17.90;67.40;;;;;;4197441;28;20480;-65
2022/05/29 01:46:55;;;;;;;0.00;0.00;;;17.90;67.60;;;;;;4205378;28;20059;-66
2022/05/29 01:49:23;;;;;;;0.00;0.00;;;17.90;68.50;;;;;;4208663;28;20043;-65
2022/05/29 01:51:52;;;;;;;0.10;0.10;;;17.80;67.60;;;;;;4208799;28;20056;-66
2022/05/29 01:54:19;;;;;;;0.00;0.00;;;17.80;67.60;;;;;;4210335;28;20067;-65
2022/05/29 01:56:46;;;;;;;0.00;0.00;;;17.80;67.50;;;;;;4225625;28;20047;-65
2022/05/29 01:59:11;;;;;;;0.00;0.00;;;17.80;67.70;;;;;;4225462;28;20109;-65
2022/05/29 02:01:40;;;;;;;0.00;0.00;;;17.90;67.60;;;;;;4224180;28;20052;-65
2022/05/29 02:04:06;;;;;;;4.50;1.75;;;17.80;67.40;;;;;;4207829;28;20056;-65
2022/05/29 02:07:47;;;;;;;0.00;0.00;;;17.80;67.50;;;;;;4209103;28;20475;-65
2022/05/29 02:09:21;;;;;;;0.00;0.00;;;17.80;67.60;;;;;;4208356;28;20056;-65
2022/05/29 02:11:49;;;;;;;0.22;0.22;;;17.80;67.70;;;;;;4211843;28;20051;-65
2022/05/29 02:14:19;;;;;;;0.00;0.00;;;17.80;67.80;;;;;;4201802;28;20041;-65
2022/05/29 02:16:47;;;;;;;0.00;0.00;;;17.80;67.80;;;;;;4195010;28;20074;-66
2022/05/29 02:19:15;;;;;;;0.40;0.40;;;17.80;68.00;;;;;;4210486;28;20056;-66
2022/05/29 02:21:43;;;;;;;0.00;0.00;;;17.80;68.10;;;;;;4211559;28;20055;-66
2022/05/29 02:24:08;;;;;;;0.00;0.00;;;17.80;68.10;;;;;;4211446;28;20473;-66
2022/05/29 02:26:34;;;;;;;0.00;0.00;;;17.80;68.20;;;;;;4194849;28;20049;-66
2022/05/29 02:29:04;;;;;;;0.20;0.20;;;17.80;68.30;;;;;;4194948;28;20049;-66
2022/05/29 02:31:39;;;;;;;0.00;0.00;;;17.80;68.20;;;;;;4194255;28;20529;-66
2022/05/29 02:34:07;;;;;;;1.90;0.63;;;17.80;68.30;;;;;;4194663;28;20044;-66
2022/05/29 02:36:38;;;;;;;0.00;0.00;;;17.80;68.30;;;;;;4178620;28;20388;-67
2022/05/29 02:39:24;;;;;;;0.00;0.00;;;17.80;68.30;;;;;;4177584;28;20053;-66
2022/05/29 02:41:53;;;;;;;0.00;0.00;;;17.80;68.30;;;;;;4211451;28;20050;-67
2022/05/29 02:44:24;;;;;;;0.00;0.00;;;17.80;68.10;;;;;;4213980;28;20117;-66
2022/05/29 02:46:52;;;;;;;0.00;0.00;;;17.80;68.30;;;;;;4211966;28;20479;-66
2022/05/29 02:49:21;;;;;;;0.00;0.00;;;17.80;68.30;;;;;;4226905;27;20284;-66
2022/05/29 02:51:48;;;;;;;0.00;0.00;;;17.70;68.30;;;;;;4227606;28;20040;-66
2022/05/29 02:54:11;;;;;;;0.00;0.00;;;17.80;68.50;;;;;;4228030;27;20128;-66
2022/05/29 02:56:33;;;;;;;0.00;0.00;;;17.70;68.40;;;;;;4228333;27;21189;-66
2022/05/29 02:58:58;;;;;;;0.00;0.00;;;17.70;68.50;;;;;;4215632;27;20063;-66
2022/05/29 03:01:29;;;;;;;0.00;0.00;;;17.70;69.50;;;;;;4211190;28;20078;-66
2022/05/29 03:04:11;;;;;;;2.28;1.55;;;17.70;68.70;;;;;;4211348;28;20052;-65
2022/05/29 03:06:50;;;;;;;0.00;0.00;;;17.70;68.80;;;;;;4178353;28;20159;-65
2022/05/29 03:09:23;;;;;;;0.00;0.00;;;17.70;68.90;;;;;;4194375;28;20139;-65
2022/05/29 03:11:47;;;;;;;0.00;0.00;;;17.70;68.90;;;;;;4194272;28;20079;-65
2022/05/29 03:14:15;;;;;;;0.00;0.00;;;17.70;68.90;;;;;;4199784;28;20097;-65
2022/05/29 03:16:57;;;;;;;0.00;0.00;;;17.70;69.00;;;;;;4210402;28;20052;-65
2022/05/29 03:19:30;;;;;;;0.30;0.30;;;17.70;69.00;;;;;;4211008;28;20055;-65
2022/05/29 03:22:02;;;;;;;0.00;0.00;;;17.70;69.00;;;;;;4227384;27;20096;-65
2022/05/29 03:24:29;;;;;;;0.00;0.00;;;17.70;69.10;;;;;;4226978;27;20063;-65
2022/05/29 03:26:58;;;;;;;0.00;0.00;;;17.70;69.20;;;;;;4209516;28;20052;-65
2022/05/29 03:29:27;;;;;;;0.00;0.00;;;17.70;69.20;;;;;;4210475;28;20043;-64
2022/05/29 03:31:50;;;;;;;0.30;0.30;;;17.70;69.20;;;;;;4210508;28;20051;-66
2022/05/29 03:34:14;;;;;;;0.00;0.00;;;17.70;69.20;;;;;;4210769;28;20155;-65
2022/05/29 03:36:36;;;;;;;0.00;0.00;;;17.70;69.10;;;;;;4226236;27;20055;-66
2022/05/29 03:39:00;;;;;;;9.48;1.50;;;17.70;69.20;;;;;;4227312;27;20233;-66
2022/05/29 03:41:28;;;;;;;0.10;0.10;;;17.70;68.90;;;;;;4227640;27;20062;-66
2022/05/29 03:43:49;;;;;;;0.00;0.00;;;17.60;68.80;;;;;;4218720;27;20538;-66
2022/05/29 03:46:12;;;;;;;0.35;0.35;;;17.60;68.20;;;;;;4224827;27;20063;-66
2022/05/29 03:48:34;;;;;;;0.00;0.00;;;17.60;68.10;;;;;;4227502;27;20539;-66
2022/05/29 03:50:56;;;;;;;0.00;0.00;;;17.60;68.40;;;;;;4227277;27;20054;-68
2022/05/29 03:53:18;;;;;;;0.20;0.20;;;17.60;68.00;;;;;;4223731;28;20408;-66
2022/05/29 03:55:42;;;;;;;0.00;0.00;;;17.60;68.20;;;;;;4226737;27;20040;-66
2022/05/29 03:58:03;;;;;;;0.00;0.00;;;17.60;69.70;;;;;;4226782;27;20475;-66
2022/05/29 04:00:26;;;;;;;0.05;0.05;;;17.60;68.90;;;;;;4226985;27;20418;-66
2022/05/29 04:02:49;;;;;;;0.00;0.00;;;17.50;69.00;;;;;;4211734;28;20143;-66
2022/05/29 04:05:13;;;;;;;0.00;0.00;;;17.50;69.20;;;;;;4210449;28;20475;-66
2022/05/29 04:12:55;;;;;;;0.00;0.00;;;17.50;69.40;;;;;;4224289;27;20054;-66
2022/05/29 04:15:17;;;;;;;0.00;0.00;;;17.50;69.30;;;;;;4210131;28;20151;-66
2022/05/29 04:17:39;;;;;;;0.00;0.00;;;17.50;69.40;;;;;;4210213;28;20410;-67
2022/05/29 04:20:01;;;;;;;0.00;0.00;;;17.50;69.40;;;;;;4209961;28;20509;-67
2022/05/29 04:22:23;;;;;;;0.00;0.00;;;17.50;69.50;;;;;;4207872;28;20056;-66
2022/05/29 04:24:45;;;;;;;0.00;0.00;;;17.50;69.50;;;;;;4209965;28;20052;-66
2022/05/29 04:27:09;;;;;;;0.00;0.00;;;17.50;69.50;;;;;;4193024;28;20109;-67
2022/05/29 04:29:33;;;;;;;0.00;0.00;;;17.50;69.40;;;;;;4191321;28;20056;-67
2022/05/29 04:34:35;;;;;;;0.28;0.28;;;17.50;70.30;;;;;;4209337;28;20113;-67
2022/05/29 04:36:57;;;;;;;6.57;0.73;;;17.50;69.40;;;;;;4209234;28;20127;-68
2022/05/29 04:39:19;;;;;;;0.65;0.65;;;17.50;69.50;;;;;;4226316;27;20490;-67
2022/05/29 04:41:40;;;;;;;0.00;0.00;;;17.50;69.50;;;;;;4222016;28;20048;-67
2022/05/29 04:44:02;;;;;;;0.30;0.30;;;17.50;69.50;;;;;;4209701;28;20125;-67
2022/05/29 04:46:26;;;;;;;0.00;0.00;;;17.50;69.50;;;;;;4192704;28;20369;-66
2022/05/29 04:48:48;;;;;;;0.20;0.20;;;17.50;69.60;;;;;;4209372;28;20101;-67
2022/05/29 04:51:10;;;;;;;0.00;0.00;;;17.50;70.50;;;;;;4209487;28;20040;-67
2022/05/29 04:53:33;;;;;;;0.00;0.00;;;17.50;69.60;;;;;;4210798;28;20040;-67
2022/05/29 04:55:56;;;;;;;0.00;0.00;;;17.50;69.60;;;;;;4209494;28;20035;-67
2022/05/29 04:58:18;;;;;;;0.00;0.00;;;17.50;69.60;;;;;;4209340;28;20387;-67
2022/05/29 05:00:40;;;;;;;0.00;0.00;;;17.50;69.50;;;;;;4209194;28;20051;-67
2022/05/29 05:03:04;;;;;;;0.00;0.00;;;17.50;69.50;;;;;;4176086;28;20496;-66
2022/05/29 05:05:27;;;;;;;0.00;0.00;;;17.50;69.20;;;;;;4175348;28;20515;-66
2022/05/29 05:07:49;;;;;;;0.00;0.00;;;17.50;69.20;;;;;;4175894;28;20049;-67
2022/05/29 05:10:15;;;;;;;0.00;0.00;;;17.50;68.40;;;;;;4175953;28;20075;-66
2022/05/29 05:12:37;;;;;;;0.00;0.00;;;17.50;68.80;;;;;;4202335;28;20062;-66
2022/05/29 05:14:59;;;;;;;0.00;0.00;;;17.50;69.70;;;;;;4192658;28;20049;-67
2022/05/29 05:17:21;;;;;;;0.00;0.00;;;17.40;68.70;;;;;;4192676;28;20048;-67
2022/05/29 05:19:44;;;;;;;0.17;0.17;;;17.40;68.70;;;;;;4192491;28;20052;-66
2022/05/29 05:22:08;;;;;;;0.00;0.00;;;17.40;68.90;;;;;;4192729;28;20052;-67
2022/05/29 05:24:30;;;;;;;0.00;0.00;;;17.40;68.90;;;;;;4191911;28;20053;-66
2022/05/29 05:26:52;;;;;;;0.00;0.00;;;17.40;68.90;;;;;;4192480;28;20106;-67
2022/05/29 05:29:16;;;;;;;0.03;0.03;;;17.40;68.80;;;;;;4192346;28;20056;-67
2022/05/29 05:31:38;;;;;;;0.00;0.00;;;17.40;69.00;;;;;;4193029;28;20048;-67
2022/05/29 05:34:00;;;;;;;0.00;0.00;;;17.40;69.70;;;;;;4192211;28;20095;-67
2022/05/29 05:36:24;;;;;;;0.00;0.00;;;17.40;68.70;;;;;;4192088;28;20038;-67
2022/05/29 05:38:46;;;;;;;0.00;0.00;;;17.40;69.90;;;;;;4192405;28;20040;-67
2022/05/29 05:41:10;;;;;;;0.00;0.00;;;17.40;68.80;;;;;;4193664;28;20056;-67
2022/05/29 05:43:32;;;;;;;0.75;0.75;;;17.40;68.70;;;;;;4191459;28;20553;-66
2022/05/29 05:45:55;;;;;;;0.80;0.80;;;17.30;68.20;;;;;;4192831;28;20110;-67
2022/05/29 05:48:17;;;;;;;0.00;0.00;;;17.40;68.40;;;;;;4195490;28;20045;-67
2022/05/29 05:50:40;;;;;;;0.00;0.00;;;17.40;68.60;;;;;;4211949;28;20054;-66
2022/05/29 05:53:03;;;;;;;0.15;0.15;;;17.30;68.60;;;;;;4196666;28;20384;-66
2022/05/29 05:55:25;;;;;;;0.70;0.52;;;17.30;68.90;;;;;;4212413;28;20422;-66
2022/05/29 05:57:47;;;;;;;2.15;2.05;;;17.30;68.80;;;;;;4211766;28;20063;-67
2022/05/29 06:00:14;;;;;;;0.00;0.00;;;17.30;68.80;;;;;;4212156;27;20048;-66
2022/05/29 06:02:36;;;;;;;0.00;0.00;;;17.30;69.10;;;;;;4212059;28;20150;-66
2022/05/29 06:04:58;;;;;;;0.30;0.30;;;17.30;68.80;;;;;;4225747;27;20052;-65
2022/05/29 06:07:20;;;;;;;0.00;0.00;;;17.30;68.90;;;;;;4228865;27;20055;-66
2022/05/29 06:09:45;;;;;;;0.00;0.00;;;17.30;68.60;;;;;;4228778;27;20070;-66
2022/05/29 06:12:09;;;;;;;0.00;0.00;;;17.30;68.70;;;;;;4215534;28;20114;-67
2022/05/29 06:14:33;;;;;;;0.00;0.00;;;17.30;68.50;;;;;;4211837;28;20073;-66
2022/05/29 06:16:55;;;;;;;0.00;0.00;;;17.30;68.70;;;;;;4211909;28;20807;-67
2022/05/29 06:19:18;;;;;;;0.00;0.00;;;17.30;68.60;;;;;;4211668;28;20083;-67
2022/05/29 06:21:40;;;;;;;0.00;0.00;;;17.30;69.00;;;;;;4218840;27;20134;-65
2022/05/29 06:24:02;;;;;;;0.10;0.10;;;17.30;69.20;;;;;;4228611;27;20047;-65
2022/05/29 06:26:25;;;;;;;0.00;0.00;;;17.30;69.30;;;;;;4228847;27;20051;-65
2022/05/29 06:28:48;;;;;;;0.10;0.10;;;17.40;69.30;;;;;;4228604;27;20043;-67
2022/05/29 06:31:12;;;;;;;0.00;0.00;;;17.40;68.70;;;;;;4224984;27;20056;-66
2022/05/29 06:33:34;;;;;;;0.00;0.00;;;17.40;68.90;;;;;;4211140;28;20051;-66
2022/05/29 06:36:07;;;;;;;0.00;0.00;;;17.40;69.10;;;;;;4211927;28;20109;-66
2022/05/29 06:38:29;;;;;;;11.68;2.40;;;17.40;69.20;;;;;;4211320;28;20105;-65
2022/05/29 06:40:52;;;;;;;0.00;0.00;;;17.40;68.70;;;;;;4211600;28;20546;-65
2022/05/29 06:43:15;;;;;;;0.00;0.00;;;17.40;68.00;;;;;;4196487;28;20079;-65
2022/05/29 06:45:41;;;;;;;0.00;0.00;;;17.30;67.20;;;;;;4192143;28;20067;-65
2022/05/29 06:48:04;;;;;;;0.43;0.10;;;17.30;66.80;;;;;;4211668;28;20048;-65
2022/05/29 06:50:26;;;;;;;0.00;0.00;;;17.30;66.60;;;;;;4211186;28;20059;-65
2022/05/29 06:52:48;;;;;;;0.00;0.00;;;17.30;66.30;;;;;;4192581;28;20099;-65
2022/05/29 06:55:11;;;;;;;0.65;0.65;;;17.20;66.50;;;;;;4194288;28;20036;-65
2022/05/29 06:57:41;;;;;;;0.00;0.00;;;17.20;66.80;;;;;;4194707;28;20052;-65
2022/05/29 07:08:06;;;;;;;0.00;0.00;;;17.20;67.10;;;;;;4226106;28;20043;-66
2022/05/29 07:10:30;;;;;;;0.00;0.00;;;17.10;67.60;;;;;;4226252;27;20089;-65
2022/05/29 07:12:52;;;;;;;0.00;0.00;;;17.10;68.00;;;;;;4226221;28;20048;-67
2022/05/29 07:15:18;;;;;;;0.00;0.00;;;17.10;66.80;;;;;;4194302;28;20456;-67
2022/05/29 07:17:40;;;;;;;0.00;0.00;;;17.10;66.50;;;;;;4194503;28;20082;-66
2022/05/29 07:20:02;;;;;;;0.00;0.00;;;17.10;66.50;;;;;;4196031;28;20080;-66
2022/05/29 07:22:25;;;;;;;0.20;0.20;;;17.10;66.20;;;;;;4210837;28;20429;-66
2022/05/29 07:24:46;;;;;;;0.10;0.10;;;17.10;66.30;;;;;;4210863;28;20082;-65
2022/05/29 07:27:09;;;;;;;0.00;0.00;;;17.10;66.60;;;;;;4210923;28;20036;-65
2022/05/29 07:29:31;;;;;;;0.00;0.00;;;17.10;66.40;;;;;;4210989;28;20101;-66
2022/05/29 07:31:55;;;;;;;0.00;0.00;;;17.10;66.60;;;;;;4177636;28;20048;-66
2022/05/29 07:34:17;;;;;;;0.00;0.00;;;17.10;66.90;;;;;;4177229;28;20072;-66
2022/05/29 07:36:39;;;;;;;0.00;0.00;;;17.10;66.80;;;;;;4177417;28;20067;-66
2022/05/29 07:39:01;;;;;;;0.10;0.10;;;17.00;66.80;;;;;;4177660;28;20056;-66
2022/05/29 07:44:02;;;;;;;0.10;0.10;;;17.10;67.20;;;;;;4193344;28;20121;-66
2022/05/29 07:46:24;;;;;;;0.00;0.00;;;17.10;67.50;;;;;;4194081;28;20133;-65
2022/05/29 07:48:48;;;;;;;0.00;0.00;;;17.10;67.80;;;;;;4193547;28;20464;-65
2022/05/29 07:51:10;;;;;;;0.00;0.00;;;17.10;67.90;;;;;;4210273;28;20802;-66
2022/05/29 07:53:32;;;;;;;0.00;0.00;;;17.10;68.00;;;;;;4210129;28;22528;-66
2022/05/29 07:55:54;;;;;;;0.00;0.00;;;17.10;67.90;;;;;;4209865;28;20063;-65
2022/05/29 07:58:17;;;;;;;0.00;0.00;;;17.10;68.10;;;;;;4210384;28;20139;-66
2022/05/29 08:00:40;;;;;;;0.13;0.13;;;17.20;67.90;;;;;;4211439;28;20467;-66
2022/05/29 08:03:03;;;;;;;0.00;0.00;;;17.10;66.60;;;;;;4210127;28;20056;-65
2022/05/29 08:05:29;;;;;;;0.00;0.00;;;17.10;66.10;;;;;;4209936;28;20078;-66
2022/05/29 08:07:52;;;;;;;0.00;0.00;;;17.10;66.50;;;;;;4217355;28;20052;-66
2022/05/29 08:10:15;;;;;;;0.00;0.00;;;17.10;66.00;;;;;;4227119;28;20054;-66
2022/05/29 08:12:37;;;;;;;0.10;0.10;;;17.10;66.50;;;;;;4227136;27;20051;-66
2022/05/29 08:14:59;;;;;;;1.58;1.55;;;17.10;66.00;;;;;;4210368;28;20044;-66
2022/05/29 08:17:22;;;;;;;0.00;0.00;;;17.10;65.60;;;;;;4205111;28;20052;-66
2022/05/29 08:19:44;;;;;;;0.15;0.15;;;17.10;66.30;;;;;;4201499;28;20054;-66
2022/05/29 08:22:07;;;;;;;0.00;0.00;;;17.10;66.20;;;;;;4209719;28;20568;-65
2022/05/29 08:32:47;;;;;;;0.00;0.00;;;17.10;65.90;;;;;;4194029;28;20565;-64
2022/05/29 08:35:09;;;;;;;0.10;0.10;;;17.00;65.90;;;;;;4196605;28;20044;-69
2022/05/29 08:37:33;;;;;;;0.00;0.00;;;17.10;66.30;;;;;;4209631;28;20048;-67
2022/05/29 08:39:55;;;;;;;0.28;0.28;;;17.10;67.50;;;;;;4209467;28;20074;-67
2022/05/29 08:42:20;;;;;;;0.00;0.00;;;17.10;67.60;;;;;;4209489;28;20742;-67
2022/05/29 08:44:47;;;;;;;0.00;0.00;;;17.10;67.30;;;;;;4210551;28;20127;-67
2022/05/29 08:47:09;;;;;;;5.47;1.38;;;17.10;67.30;;;;;;4208970;28;20059;-68
2022/05/29 08:49:35;;;;;;;0.10;0.10;;;17.10;67.90;;;;;;4208833;28;20087;-69
2022/05/29 08:52:08;;;;;;;0.00;0.00;;;17.10;67.90;;;;;;4206719;28;20510;-69
2022/05/29 08:54:47;;;;;;;0.00;0.00;;;17.20;68.00;;;;;;4207098;28;20047;-68
2022/05/29 08:57:21;;;;;;;0.00;0.00;;;17.10;68.10;;;;;;4207706;28;20098;-69
2022/05/29 08:59:50;;;;;;;0.00;0.00;;;17.20;68.40;;;;;;4209183;28;20510;-68
2022/05/29 09:02:22;;;;;;;1.58;1.50;;;17.10;68.40;;;;;;4209122;28;20048;-68
2022/05/29 09:04:50;;;;;;;2.00;1.02;;;17.20;68.50;;;;;;4208842;28;20043;-68
2022/05/29 09:07:17;;;;;;;0.00;0.00;;;17.20;68.00;;;;;;4208646;28;20058;-68
2022/05/29 09:09:45;;;;;;;0.00;0.00;;;17.20;68.00;;;;;;4208891;28;20479;-68
2022/05/29 09:12:11;;;;;;;0.00;0.00;;;17.20;67.90;;;;;;4208612;28;20040;-69
2022/05/29 09:14:44;;;;;;;0.00;0.00;;;17.20;68.10;;;;;;4195273;28;20407;-68
2022/05/29 09:17:12;;;;;;;0.00;0.00;;;17.20;67.70;;;;;;4192082;28;20468;-68
2022/05/29 09:19:43;;;;;;;5.28;2.83;;;17.20;67.10;;;;;;4191403;28;20048;-68
2022/05/29 09:22:15;;;;;;;0.00;0.00;;;17.20;66.90;;;;;;4192108;28;20117;-68
2022/05/29 09:24:49;;;;;;;0.00;0.00;;;17.20;66.40;;;;;;4192323;28;20474;-68
2022/05/29 09:27:11;;;;;;;0.00;0.00;;;17.20;65.30;;;;;;4194634;28;20044;-68
2022/05/29 09:29:36;;;;;;;0.22;0.22;;;17.20;66.80;;;;;;4192367;28;20052;-68
2022/05/29 09:31:58;;;;;;;0.00;0.00;;;17.20;65.90;;;;;;4192072;28;20048;-69
2022/05/29 09:34:20;;;;;;;0.00;0.00;;;17.10;65.50;;;;;;4208848;28;20105;-69
2022/05/29 09:36:51;;;;;;;0.00;0.00;;;17.20;66.00;;;;;;4208512;28;20039;-68
2022/05/29 09:39:19;;;;;;;;;;;17.20;66.00;;;;;;4192256;28;20064;-69
2022/05/29 09:41:48;;;;;;;0.00;0.00;;;17.10;65.10;;;;;;4191898;28;19924;-69
2022/05/29 09:44:13;;;;;;;0.00;0.00;;;17.10;65.90;;;;;;4191529;28;20403;-68
2022/05/29 09:46:37;;;;;;;0.00;0.00;;;17.10;65.70;;;;;;4208514;28;20064;-68
2022/05/29 09:51:45;;;;;;;0.00;0.00;;;17.10;65.60;;;;;;4191664;28;20110;-69
2022/05/29 09:54:13;;;;;;;0.00;0.00;;;17.10;65.40;;;;;;4192030;28;20055;-69
2022/05/29 09:56:36;;;;;;;0.00;0.00;;;17.10;65.20;;;;;;4191355;28;20372;-69
2022/05/29 09:59:04;;;;;;;0.82;0.60;;;17.10;66.00;;;;;;4192168;28;20045;-69
2022/05/29 10:01:32;;;;;;;0.00;0.00;;;17.10;66.20;;;;;;4191750;28;20080;-69
2022/05/29 10:03:56;;;;;;;1.05;1.05;;;17.10;66.30;;;;;;4191576;28;20063;-68
2022/05/29 10:06:26;;;;;;;0.00;0.00;;;17.10;66.10;;;;;;4190226;28;20111;-69
2022/05/29 10:08:50;;;;;;;0.00;0.00;;;17.10;65.90;;;;;;4189999;28;20044;-68
2022/05/29 10:11:18;;;;;;;0.00;0.00;;;17.10;65.60;;;;;;4191918;28;20561;-69
2022/05/29 10:13:43;;;;;;;0.00;0.00;;;17.20;65.80;;;;;;4208105;28;20133;-69
2022/05/29 10:16:07;;;;;;;0.00;0.00;;;17.20;64.80;;;;;;4208103;28;20046;-69
2022/05/29 10:18:34;;;;;;;0.00;0.00;;;17.20;64.30;;;;;;4208492;28;20043;-69
2022/05/29 10:21:08;;;;;;;0.55;0.55;;;17.20;63.30;;;;;;4208325;28;20047;-68
2022/05/29 10:23:32;;;;;;;1.63;0.98;;;17.20;63.90;;;;;;4208350;28;20384;-68
2022/05/29 10:26:01;;;;;;;0.00;0.00;;;17.20;64.50;;;;;;4208224;28;20040;-68
2022/05/29 10:28:40;;;;;;;0.00;0.00;;;17.20;64.60;;;;;;4207757;28;20443;-68
2022/05/29 10:31:04;;;;;;;0.00;0.00;;;17.20;64.70;;;;;;4208584;28;20522;-69
2022/05/29 10:33:31;;;;;;;0.00;0.00;;;17.20;64.50;;;;;;4211469;28;20407;-70
2022/05/29 10:35:58;;;;;;;0.00;0.00;;;17.20;64.80;;;;;;4209852;28;20534;-69
2022/05/29 10:38:27;;;;;;;0.00;0.00;;;17.30;64.60;;;;;;4211320;28;20051;-69
2022/05/29 10:40:51;;;;;;;0.35;0.35;;;17.20;64.60;;;;;;4211094;28;20048;-69
2022/05/29 10:43:32;;;;;;;0.00;0.00;;;17.20;65.10;;;;;;4194193;28;20554;-68
2022/05/29 10:45:54;;;;;;;;;;;17.20;65.10;;;;;;4194708;28;20108;-68
2022/05/29 10:48:38;;;;;;;0.00;0.00;;;17.20;64.60;;;;;;4194423;28;20715;-68
2022/05/29 10:51:17;;;;;;;0.00;0.00;;;17.20;64.60;;;;;;4194295;28;20052;-69
2022/05/29 10:53:52;;;;;;;1.40;1.30;;;17.20;65.20;;;;;;4193972;28;20088;-69
2022/05/29 10:56:26;;;;;;;0.22;0.22;;;17.20;65.20;;;;;;4194167;28;20067;-69
2022/05/29 10:59:04;;;;;;;0.10;0.10;;;17.20;66.30;;;;;;4194147;28;20506;-69
2022/05/29 11:04:55;;;;;;;0.00;0.00;;;17.20;65.80;;;;;;4194221;28;20052;-68
2022/05/29 11:07:36;;;;;;;0.00;0.00;;;17.20;65.90;;;;;;4206523;28;20067;-68
2022/05/29 11:10:10;;;;;;;0.00;0.00;;;17.20;66.00;;;;;;4210713;28;20044;-68
2022/05/29 11:12:52;;;;;;;0.00;0.00;;;17.20;66.10;;;;;;4211025;28;20052;-69
2022/05/29 11:15:27;;;;;;;0.10;0.10;;;17.20;66.10;;;;;;4193573;28;20071;-68
2022/05/29 11:18:08;;;;;;;0.00;0.00;;;17.20;65.90;;;;;;4193851;28;20460;-68
2022/05/29 11:21:05;;;;;;;0.00;0.00;;;17.20;65.90;;;;;;4193660;28;20063;-68
2022/05/29 11:23:44;;;;;;;0.00;0.00;;;17.20;66.10;;;;;;4158370;28;20046;-68
2022/05/29 11:26:20;;;;;;;0.00;0.00;;;17.30;66.10;;;;;;4210289;28;20047;-69
2022/05/29 11:29:05;;;;;;;0.00;0.00;;;17.30;65.90;;;;;;4210175;28;20555;-69
2022/05/29 11:31:57;;;;;;;0.10;0.10;;;17.30;65.60;;;;;;4193217;28;20045;-69
2022/05/29 11:34:32;;;;;;;0.13;0.13;;;17.30;65.20;;;;;;4193627;28;20056;-69
2022/05/29 11:37:12;;;;;;;0.45;0.45;;;17.30;64.40;;;;;;4207320;28;20109;-69
2022/05/29 11:39:39;;;;;;;0.00;0.00;;;17.30;63.70;;;;;;4210468;28;20048;-68
2022/05/29 11:42:07;;;;;;;0.00;0.00;;;17.30;63.00;;;;;;4209287;28;20128;-69
2022/05/29 11:44:35;;;;;;;0.00;0.00;;;17.30;63.70;;;;;;4200580;28;20055;-65
2022/05/29 11:52:37;;;;;;;0.00;0.00;;;17.40;63.70;;;;;;4193991;28;20452;-65
2022/05/29 11:55:05;;;;;;;0.10;0.10;;;17.50;63.20;;;;;;4207926;27;20055;-67
2022/05/29 11:57:33;;;;;;;0.00;0.00;;;17.50;62.90;;;;;;4210351;28;20071;-66
2022/05/29 12:00:02;;;;;;;0.00;0.00;;;17.50;62.70;;;;;;4192280;28;20057;-67
2022/05/29 12:02:32;;;;;;;0.00;0.00;;;17.50;61.60;;;;;;4210032;28;20066;-66
2022/05/29 12:04:59;;;;;;;0.00;0.00;;;17.50;62.40;;;;;;4211161;28;20059;-66
2022/05/29 12:07:29;;;;;;;0.00;0.00;;;17.50;62.70;;;;;;4209728;28;20109;-66
2022/05/29 12:09:55;;;;;;;0.10;0.10;;;17.50;62.30;;;;;;4210206;28;20101;-66
2022/05/29 12:12:23;;;;;;;0.00;0.00;;;17.50;62.20;;;;;;4209494;28;20528;-66
2022/05/29 12:14:51;;;;;;;0.00;0.00;;;17.50;62.50;;;;;;4211871;28;20126;-65
2022/05/29 12:17:18;;;;;;;0.00;0.00;;;17.50;62.70;;;;;;4209152;27;20075;-66
2022/05/29 12:19:44;;;;;;;0.00;0.00;;;17.40;62.70;;;;;;4208333;28;20181;-67
2022/05/29 12:22:08;;;;;;;0.43;0.43;;;17.40;63.00;;;;;;4209596;28;20062;-66
2022/05/29 12:24:35;;;;;;;0.00;0.00;;;17.40;62.70;;;;;;4216902;28;20097;-66
2022/05/29 12:27:04;;;;;;;0.00;0.00;;;17.40;63.10;;;;;;4226351;27;20051;-67
2022/05/29 12:29:34;;;;;;;0.00;0.00;;;17.40;63.20;;;;;;4214714;28;20671;-66
2022/05/29 12:31:59;;;;;;;0.00;0.00;;;17.40;63.00;;;;;;4207117;28;20131;-68
2022/05/29 12:34:25;;;;;;;0.00;0.00;;;17.40;63.20;;;;;;4191867;28;20078;-67
2022/05/29 12:37:08;;;;;;;0.17;0.17;;;17.50;63.10;;;;;;4209666;28;20044;-67
2022/05/29 12:39:54;;;;;;;0.00;0.00;;;17.50;63.30;;;;;;4209857;28;20048;-67
2022/05/29 12:42:39;;;;;;;1.77;1.38;;;17.50;62.90;;;;;;4209198;28;20435;-66
2022/05/29 12:45:35;;;;;;;2.25;1.55;;;17.50;62.90;;;;;;4210215;28;20060;-67
2022/05/29 12:48:28;;;;;;;1.95;1.55;;;17.50;63.10;;;;;;4209352;28;20052;-66
2022/05/29 12:51:25;;;;;;;0.00;0.00;;;17.50;63.00;;;;;;4184200;28;20090;-66
2022/05/29 12:54:30;;;;;;;0.00;0.00;;;17.40;63.20;;;;;;4128140;28;20078;-66
2022/05/29 12:57:31;;;;;;;0.00;0.00;;;17.40;63.60;;;;;;4207480;28;20055;-66
2022/05/29 13:00:18;;;;;;;0.00;0.00;;;17.40;63.60;;;;;;4200593;28;20052;-66
2022/05/29 13:03:16;;;;;;;0.00;0.00;;;17.40;63.60;;;;;;4191267;28;20135;-66
2022/05/29 13:06:04;;;;;;;0.10;0.10;;;17.40;63.40;;;;;;4206703;28;20136;-66
2022/05/29 13:08:55;;;;;;;0.00;0.00;;;17.40;63.50;;;;;;4207616;28;20048;-66
2022/05/29 13:11:22;;;;;;;0.00;0.00;;;17.40;63.40;;;;;;4208506;28;20524;-66
2022/05/29 13:13:47;;;;;;;0.03;0.03;;;17.40;63.60;;;;;;4207508;28;20413;-66
2022/05/29 13:16:26;;;;;;;0.00;0.00;;;17.40;63.20;;;;;;4216379;28;20539;-66
2022/05/29 13:21:32;;;;;;;0.00;0.00;;;17.50;63.40;;;;;;4183069;28;20048;-66
2022/05/29 13:23:58;;;;;;;0.00;0.00;;;17.50;63.50;;;;;;4192177;28;20056;-66
2022/05/29 13:26:26;;;;;;;5.78;2.08;;;17.50;63.10;;;;;;4192340;28;20498;-67
2022/05/29 13:29:01;;;;;;;0.00;0.00;;;17.50;62.60;;;;;;4206828;28;20050;-66
2022/05/29 13:31:25;;;;;;;0.00;0.00;;;17.50;62.50;;;;;;4208388;28;20043;-66